首页
METAR-TAF:

METAR-TAF

机场 :

埃皮纳勒, 法国

纬度: 48-19-31N, 经度: 6-04-00E, 海拔: 330米

当前天气观测

该预报发布于24分钟前的03:30 UTC
风速4节,风向
温度 14°C
湿度 94%
气压 1013 hPa
能见度10公里或以上
少量云层高于3900英尺

METAR: LFSG 200330Z AUTO 17004KT 9999 FEW039 14/13 Q1013

时间: 05:54 (03:54 UTC)


TAF: 丢失

超过4000个机场的气象观测和天气预报(METAR&TAF报告)。

可查询的气象台以黄色和红色小点在地图上表示。

将鼠标移到小点上方,可查看气象台名称。

然后点击查看天气观测和预报。

如需切换地图:点击带黑十字的绿色按钮放大地图;点击带横线的绿色按钮缩小地图;或者点击绿色箭头查看邻近地区的地图。


METAR-TAF: